Time;durP1;ratioP1;P1;durP2;ratioP2;P2;SDS_P1;SDS_P2;PMS_P1;PMS_P2;Temp;Humidity;BMP_temperature;BMP_pressure;BME280_temperature;BME280_humidity;BME280_pressure;Samples;Min_cycle;Max_cycle;Signal;HPM_P1;HPM_P2
2023/05/17 00:01:30;;;;;;;4.53;2.70;;;10.40;89.90;;;;;;5027784;28;20771;-73
2023/05/17 00:03:57;;;;;;;4.27;2.97;;;10.30;90.20;;;;;;5014848;28;20428;-75
2023/05/17 00:06:24;;;;;;;4.53;3.30;;;10.30;90.30;;;;;;5023025;28;20477;-74
2023/05/17 00:08:51;;;;;;;4.80;2.60;;;10.20;90.00;;;;;;5017665;28;20437;-73
2023/05/17 00:11:19;;;;;;;6.60;3.03;;;10.20;90.30;;;;;;5027080;28;20466;-73
2023/05/17 00:13:46;;;;;;;5.30;2.70;;;10.20;90.40;;;;;;5029398;28;20435;-75
2023/05/17 00:16:12;;;;;;;4.32;2.80;;;10.10;90.50;;;;;;5031631;28;20422;-73
2023/05/17 00:18:39;;;;;;;4.03;2.70;;;10.00;90.80;;;;;;5021955;28;20434;-75
2023/05/17 00:21:06;;;;;;;4.03;2.50;;;10.00;90.90;;;;;;5029914;28;20422;-74
2023/05/17 00:23:33;;;;;;;3.00;2.70;;;10.00;91.20;;;;;;5028010;28;20453;-74
2023/05/17 00:25:59;;;;;;;6.47;3.10;;;9.90;91.10;;;;;;5026835;28;20462;-74
2023/05/17 00:28:28;;;;;;;3.80;2.67;;;9.80;91.30;;;;;;5030115;28;20936;-74
2023/05/17 00:30:54;;;;;;;4.13;2.53;;;9.70;91.70;;;;;;5029915;28;20419;-74
2023/05/17 00:33:21;;;;;;;3.50;2.80;;;9.70;92.10;;;;;;5029127;28;20441;-74
2023/05/17 00:35:48;;;;;;;3.85;2.63;;;9.70;92.20;;;;;;5029968;28;20418;-74
2023/05/17 00:38:14;;;;;;;4.43;2.85;;;9.60;92.30;;;;;;5017250;28;20500;-74
2023/05/17 00:40:41;;;;;;;3.75;2.80;;;9.50;92.80;;;;;;5029728;28;20422;-73
2023/05/17 00:43:08;;;;;;;3.25;2.70;;;9.60;93.10;;;;;;5028722;28;20443;-74
2023/05/17 00:45:36;;;;;;;4.30;2.80;;;9.50;93.20;;;;;;5029692;28;20450;-74
2023/05/17 00:48:03;;;;;;;4.77;2.80;;;9.50;93.50;;;;;;5028362;28;20941;-74
2023/05/17 00:50:30;;;;;;;4.40;2.88;;;9.50;93.60;;;;;;5029093;28;20435;-74
2023/05/17 00:52:56;;;;;;;6.00;2.92;;;9.40;93.80;;;;;;5027371;28;20431;-74
2023/05/17 00:55:23;;;;;;;4.15;2.75;;;9.40;94.30;;;;;;5024668;28;20427;-74
2023/05/17 00:57:50;;;;;;;4.10;2.50;;;9.40;94.20;;;;;;5020448;28;20793;-74
2023/05/17 01:00:17;;;;;;;6.65;3.50;;;9.40;94.30;;;;;;5028787;28;20570;-74
2023/05/17 01:02:47;;;;;;;4.65;2.72;;;9.40;94.40;;;;;;5027246;28;20434;-74
2023/05/17 01:05:14;;;;;;;6.07;2.78;;;9.30;94.60;;;;;;5031097;28;20856;-74
2023/05/17 01:07:40;;;;;;;3.80;2.83;;;9.30;94.80;;;;;;5032493;28;20411;-74
2023/05/17 01:10:09;;;;;;;4.38;2.85;;;9.30;95.10;;;;;;5028124;28;20856;-74
2023/05/17 01:12:45;;;;;;;4.40;2.80;;;9.20;95.30;;;;;;5018176;28;20430;-73
2023/05/17 01:15:16;;;;;;;4.00;2.80;;;9.20;95.50;;;;;;5030619;28;21935;-73
2023/05/17 01:17:54;;;;;;;4.25;2.70;;;9.20;95.70;;;;;;5016963;28;20449;-73
2023/05/17 01:20:26;;;;;;;5.28;3.25;;;9.20;95.50;;;;;;5025174;28;20470;-74
2023/05/17 01:23:09;;;;;;;5.88;2.80;;;9.20;95.70;;;;;;5030196;28;20442;-74
2023/05/17 01:25:47;;;;;;;4.68;2.90;;;9.10;96.00;;;;;;5026486;28;20425;-73
2023/05/17 01:28:17;;;;;;;5.28;2.78;;;9.10;96.30;;;;;;5030544;28;20418;-73
2023/05/17 01:30:46;;;;;;;8.50;3.40;;;9.20;96.40;;;;;;5017102;28;20431;-74
2023/05/17 01:33:13;;;;;;;5.82;3.10;;;9.20;96.00;;;;;;5027464;28;20442;-73
2023/05/17 01:35:40;;;;;;;5.65;2.90;;;9.20;96.00;;;;;;5030804;28;20423;-73
2023/05/17 01:38:07;;;;;;;4.95;3.33;;;9.20;96.10;;;;;;5030202;28;20419;-74
2023/05/17 01:40:39;;;;;;;4.25;2.90;;;9.20;96.60;;;;;;5017626;28;20947;-75
2023/05/17 01:43:14;;;;;;;5.45;2.90;;;9.20;96.00;;;;;;5023955;28;20492;-73
2023/05/17 01:45:50;;;;;;;4.10;3.30;;;9.20;95.90;;;;;;5029221;28;20426;-73
2023/05/17 01:48:23;;;;;;;5.30;3.30;;;9.20;95.80;;;;;;5027997;28;20431;-73
2023/05/17 01:50:52;;;;;;;5.25;3.25;;;9.10;96.00;;;;;;5027108;28;20441;-73
2023/05/17 01:53:23;;;;;;;5.50;3.30;;;9.10;96.30;;;;;;5019565;28;20442;-73
2023/05/17 01:55:52;;;;;;;4.47;3.40;;;9.00;95.80;;;;;;5027131;28;20798;-73
2023/05/17 01:58:22;;;;;;;6.20;4.00;;;9.00;95.90;;;;;;5029294;28;20913;-73
2023/05/17 02:00:54;;;;;;;6.00;4.10;;;9.00;96.00;;;;;;5027712;28;20458;-73
2023/05/17 02:03:21;;;;;;;6.05;3.80;;;8.90;96.30;;;;;;5022286;28;20525;-74
2023/05/17 02:05:48;;;;;;;5.80;3.70;;;8.90;96.40;;;;;;5033052;28;20428;-74
2023/05/17 02:08:15;;;;;;;6.22;4.10;;;8.90;96.60;;;;;;5029821;28;20411;-73
2023/05/17 02:10:42;;;;;;;5.15;3.70;;;8.90;96.70;;;;;;5015533;28;20437;-73
2023/05/17 02:13:08;;;;;;;5.35;4.30;;;8.90;96.70;;;;;;5028480;28;20437;-73
2023/05/17 02:15:35;;;;;;;6.85;3.80;;;8.90;97.00;;;;;;5027686;28;20437;-74
2023/05/17 02:18:03;;;;;;;5.30;3.88;;;8.90;96.70;;;;;;5027976;28;20806;-73
2023/05/17 02:20:30;;;;;;;6.28;4.15;;;8.90;97.10;;;;;;5017229;28;20422;-73
2023/05/17 02:22:57;;;;;;;5.88;3.88;;;8.90;97.10;;;;;;5028395;28;20442;-73
2023/05/17 02:25:23;;;;;;;4.85;4.35;;;8.80;97.10;;;;;;5028604;28;21076;-73
2023/05/17 02:27:50;;;;;;;5.68;4.28;;;8.80;97.10;;;;;;5029048;28;20426;-75
2023/05/17 02:30:17;;;;;;;9.07;4.25;;;8.80;97.80;;;;;;5024860;28;20440;-72
2023/05/17 02:32:43;;;;;;;6.43;4.40;;;8.70;97.60;;;;;;5017352;28;21086;-72
2023/05/17 02:35:12;;;;;;;6.55;4.63;;;8.70;97.60;;;;;;5020401;28;20446;-73
2023/05/17 02:37:38;;;;;;;7.60;4.70;;;8.70;97.90;;;;;;5027168;28;20422;-73
2023/05/17 02:40:08;;;;;;;5.80;4.50;;;8.60;98.10;;;;;;5025337;28;20451;-73
2023/05/17 02:42:35;;;;;;;6.05;4.90;;;8.60;98.30;;;;;;5019174;28;20418;-73
2023/05/17 02:45:02;;;;;;;6.15;4.75;;;8.60;98.70;;;;;;5027593;28;20435;-73
2023/05/17 02:47:29;;;;;;;8.18;5.20;;;8.70;98.80;;;;;;5027300;28;20439;-73
2023/05/17 02:49:56;;;;;;;6.90;4.90;;;8.60;98.70;;;;;;5019195;28;20793;-73
2023/05/17 02:52:24;;;;;;;7.00;5.00;;;8.60;99.00;;;;;;5028938;28;20427;-73
2023/05/17 02:54:51;;;;;;;5.72;4.82;;;8.60;99.20;;;;;;5027785;28;20779;-73
2023/05/17 02:57:18;;;;;;;8.85;5.63;;;8.50;99.30;;;;;;5028591;28;20419;-73
2023/05/17 02:59:44;;;;;;;8.32;5.95;;;8.50;99.50;;;;;;5027843;28;20853;-73
2023/05/17 03:02:11;;;;;;;7.53;5.13;;;8.50;99.70;;;;;;5027771;28;20423;-73
2023/05/17 03:04:38;;;;;;;7.63;5.20;;;8.50;99.80;;;;;;5026653;28;20434;-73
2023/05/17 03:07:05;;;;;;;7.50;5.40;;;8.50;99.90;;;;;;5031195;28;20423;-74
2023/05/17 03:09:34;;;;;;;6.97;5.70;;;8.50;99.90;;;;;;5017433;28;20418;-73
2023/05/17 03:12:00;;;;;;;7.22;5.65;;;8.50;99.90;;;;;;5028077;28;20421;-73
2023/05/17 03:14:27;;;;;;;8.80;5.70;;;8.40;99.90;;;;;;5026497;28;20434;-73
2023/05/17 03:16:54;;;;;;;8.67;5.47;;;8.40;99.90;;;;;;5015052;28;20448;-73
2023/05/17 03:19:20;;;;;;;8.43;6.10;;;8.40;99.90;;;;;;5023747;28;20441;-74
2023/05/17 03:21:47;;;;;;;9.18;5.57;;;8.40;99.90;;;;;;5027273;28;20435;-73
2023/05/17 03:24:14;;;;;;;9.10;6.00;;;8.40;99.90;;;;;;5028449;28;20415;-73
2023/05/17 03:26:42;;;;;;;6.63;5.90;;;8.40;99.90;;;;;;5028082;28;20415;-73
2023/05/17 03:29:09;;;;;;;10.23;6.55;;;8.40;99.90;;;;;;5028171;28;20423;-73
2023/05/17 03:31:36;;;;;;;7.22;6.07;;;8.40;99.90;;;;;;5025793;28;20509;-73
2023/05/17 03:34:03;;;;;;;9.38;6.18;;;8.40;99.90;;;;;;5027284;28;20427;-73
2023/05/17 03:36:30;;;;;;;8.93;6.60;;;8.30;99.90;;;;;;5028230;28;20456;-73
2023/05/17 03:38:56;;;;;;;9.48;6.75;;;8.30;99.90;;;;;;5020130;28;20424;-73
2023/05/17 03:41:23;;;;;;;10.25;6.55;;;8.30;99.90;;;;;;5022406;28;20478;-72
2023/05/17 03:43:51;;;;;;;9.00;6.10;;;8.30;99.90;;;;;;5028081;28;20789;-73
2023/05/17 03:46:18;;;;;;;10.05;6.43;;;8.20;99.90;;;;;;5049548;22;20503;-69
2023/05/17 03:48:45;;;;;;;7.80;6.30;;;8.20;99.90;;;;;;5003725;28;20519;-70
2023/05/17 03:51:12;;;;;;;10.65;6.70;;;8.20;99.90;;;;;;5005902;28;20436;-70
2023/05/17 03:53:42;;;;;;;11.93;6.70;;;8.20;99.90;;;;;;5007386;28;20435;-70
2023/05/17 03:56:08;;;;;;;9.45;7.20;;;8.20;99.90;;;;;;5003901;28;20435;-69
2023/05/17 03:58:35;;;;;;;9.63;6.38;;;8.20;99.90;;;;;;5005649;28;20459;-70
2023/05/17 04:01:04;;;;;;;10.43;7.00;;;8.30;99.90;;;;;;5004119;28;20898;-70
2023/05/17 04:03:30;;;;;;;11.15;6.90;;;8.30;99.90;;;;;;4998871;28;20469;-70
2023/05/17 04:06:05;;;;;;;10.70;6.90;;;8.40;99.90;;;;;;4994726;28;20448;-70
2023/05/17 04:08:31;;;;;;;10.70;7.93;;;8.50;99.90;;;;;;4999752;28;20451;-68
2023/05/17 04:10:58;;;;;;;13.52;7.20;;;8.50;99.90;;;;;;5005615;28;20455;-69
2023/05/17 04:13:25;;;;;;;15.00;8.00;;;8.50;99.90;;;;;;5006268;28;20420;-70
2023/05/17 04:15:51;;;;;;;13.93;8.10;;;8.50;99.90;;;;;;5000521;28;20510;-69
2023/05/17 04:18:19;;;;;;;11.43;8.00;;;8.50;99.90;;;;;;4994246;28;20874;-70
2023/05/17 04:20:46;;;;;;;13.45;7.70;;;8.50;99.90;;;;;;4999561;28;20423;-69
2023/05/17 04:23:13;;;;;;;14.23;8.13;;;8.60;99.90;;;;;;5004732;28;20505;-69
2023/05/17 04:25:40;;;;;;;10.20;7.20;;;8.60;99.90;;;;;;4997789;28;20445;-70
2023/05/17 04:28:06;;;;;;;11.52;7.85;;;8.70;99.90;;;;;;4991888;28;20880;-70
2023/05/17 04:30:33;;;;;;;12.25;7.47;;;8.80;99.90;;;;;;5005383;28;20448;-69
2023/05/17 04:33:00;;;;;;;10.38;7.75;;;8.80;99.90;;;;;;5005756;28;20492;-69
2023/05/17 04:35:28;;;;;;;11.85;8.35;;;8.90;99.90;;;;;;4998229;28;20566;-69
2023/05/17 04:37:55;;;;;;;11.73;8.52;;;9.00;99.90;;;;;;5005389;28;20421;-70
2023/05/17 04:40:22;;;;;;;13.85;8.73;;;9.10;99.90;;;;;;5005618;28;20783;-69
2023/05/17 04:42:49;;;;;;;14.77;8.88;;;9.10;99.90;;;;;;5007469;28;20440;-69
2023/05/17 04:45:16;;;;;;;14.23;8.70;;;9.20;99.90;;;;;;5006240;28;20432;-69
2023/05/17 04:47:43;;;;;;;13.90;8.80;;;9.20;99.90;;;;;;4998424;28;20433;-68
2023/05/17 04:50:10;;;;;;;13.30;8.25;;;9.10;99.90;;;;;;5002730;28;20518;-70
2023/05/17 04:52:38;;;;;;;12.73;8.45;;;9.10;99.90;;;;;;5003912;28;20534;-69
2023/05/17 04:55:06;;;;;;;13.47;8.60;;;9.10;99.90;;;;;;5003265;28;20581;-69
2023/05/17 04:57:32;;;;;;;15.82;9.52;;;9.10;99.90;;;;;;4992286;28;20422;-71
2023/05/17 04:59:59;;;;;;;10.80;8.77;;;9.00;99.90;;;;;;4997156;28;20508;-71
2023/05/17 05:02:26;;;;;;;13.07;8.80;;;9.00;99.90;;;;;;4998192;28;20822;-70
2023/05/17 05:04:52;;;;;;;12.70;8.60;;;9.00;99.90;;;;;;5001577;28;20544;-69
2023/05/17 05:07:19;;;;;;;13.32;9.05;;;9.10;99.90;;;;;;4988924;28;20769;-70
2023/05/17 05:09:47;;;;;;;16.38;9.73;;;9.10;99.90;;;;;;5003652;28;20519;-71
2023/05/17 05:12:14;;;;;;;13.68;9.43;;;9.20;99.90;;;;;;5002729;28;20436;-71
2023/05/17 05:14:41;;;;;;;15.03;9.00;;;9.20;99.90;;;;;;4999986;28;20428;-69
2023/05/17 05:17:08;;;;;;;13.98;11.07;;;9.30;99.90;;;;;;5003416;28;20825;-70
2023/05/17 05:19:34;;;;;;;13.00;10.50;;;9.50;99.90;;;;;;5000975;28;20918;-68
2023/05/17 05:22:01;;;;;;;13.00;10.30;;;9.50;99.90;;;;;;4992212;28;20475;-70
2023/05/17 05:24:28;;;;;;;12.00;8.80;;;9.60;99.90;;;;;;4996547;28;20453;-70
2023/05/17 05:26:56;;;;;;;11.32;8.95;;;9.70;99.90;;;;;;4987245;28;20424;-70
2023/05/17 05:29:23;;;;;;;12.70;9.18;;;9.70;99.60;;;;;;4996744;28;20931;-68
2023/05/17 05:31:50;;;;;;;13.93;9.82;;;9.70;99.60;;;;;;4996917;28;20432;-70
2023/05/17 05:34:16;;;;;;;14.30;9.55;;;9.70;99.70;;;;;;5000255;28;20795;-68
2023/05/17 05:36:43;;;;;;;14.05;10.10;;;9.70;99.90;;;;;;5002102;28;20455;-71
2023/05/17 05:39:11;;;;;;;14.47;10.30;;;9.80;99.90;;;;;;5001558;28;20488;-71
2023/05/17 05:41:38;;;;;;;14.88;10.60;;;9.90;99.90;;;;;;4997306;28;20432;-71
2023/05/17 05:44:06;;;;;;;15.38;9.88;;;9.90;99.80;;;;;;4999109;28;20512;-70
2023/05/17 05:46:33;;;;;;;15.65;11.50;;;10.00;99.60;;;;;;5000727;28;20539;-69
2023/05/17 05:48:59;;;;;;;15.50;11.00;;;10.00;99.60;;;;;;4998488;28;20523;-69
2023/05/17 05:51:26;;;;;;;13.18;10.20;;;10.00;99.80;;;;;;5001637;28;20464;-71
2023/05/17 05:53:53;;;;;;;13.80;10.80;;;9.90;99.30;;;;;;5002492;28;20440;-70
2023/05/17 05:56:19;;;;;;;16.85;11.80;;;9.80;99.90;;;;;;4989895;28;20493;-71
2023/05/17 05:58:46;;;;;;;16.17;12.50;;;9.80;99.90;;;;;;4999793;28;20554;-70
2023/05/17 06:01:14;;;;;;;16.85;13.48;;;9.80;99.90;;;;;;4992959;28;20788;-69
2023/05/17 06:03:41;;;;;;;17.80;14.05;;;9.80;99.90;;;;;;4996147;28;20435;-69
2023/05/17 06:06:08;;;;;;;17.77;13.63;;;9.80;99.90;;;;;;4999581;28;20438;-69
2023/05/17 06:08:35;;;;;;;16.60;13.27;;;9.90;99.90;;;;;;4991220;28;20444;-70
2023/05/17 06:11:02;;;;;;;19.45;13.40;;;9.90;99.90;;;;;;4995508;28;20428;-69
2023/05/17 06:13:29;;;;;;;17.50;12.57;;;10.00;99.90;;;;;;5003231;28;20847;-69
2023/05/17 06:15:56;;;;;;;14.38;12.55;;;10.10;99.90;;;;;;5000367;28;20463;-69
2023/05/17 06:18:24;;;;;;;19.42;14.88;;;10.20;99.90;;;;;;5003016;28;20611;-69
2023/05/17 06:20:51;;;;;;;22.80;15.88;;;10.30;99.90;;;;;;4997052;28;20556;-70
2023/05/17 06:23:17;;;;;;;18.25;14.65;;;10.40;99.90;;;;;;5002673;28;20931;-70
2023/05/17 06:25:44;;;;;;;18.02;14.20;;;10.60;99.90;;;;;;4993236;28;20526;-70
2023/05/17 06:28:11;;;;;;;19.60;15.25;;;10.70;99.60;;;;;;5002956;28;20480;-69
2023/05/17 06:30:38;;;;;;;16.40;14.70;;;10.90;99.10;;;;;;4996772;28;20977;-69
2023/05/17 06:33:04;;;;;;;19.15;14.85;;;11.10;98.40;;;;;;5001601;28;20436;-70
2023/05/17 06:35:32;;;;;;;17.60;15.10;;;11.20;97.60;;;;;;4998165;28;20431;-70
2023/05/17 06:37:59;;;;;;;21.10;14.40;;;11.20;97.10;;;;;;5004563;28;20417;-71
2023/05/17 06:40:26;;;;;;;19.33;14.70;;;11.30;96.30;;;;;;4995883;28;20453;-71
2023/05/17 06:42:52;;;;;;;20.20;14.30;;;11.30;95.60;;;;;;5001211;28;20436;-69
2023/05/17 06:45:20;;;;;;;17.40;14.27;;;11.30;95.70;;;;;;4987368;28;20994;-69
2023/05/17 06:47:47;;;;;;;16.23;14.02;;;11.30;95.00;;;;;;4995918;28;20532;-69
2023/05/17 06:50:14;;;;;;;15.60;13.23;;;11.30;94.40;;;;;;4999843;28;20444;-70
2023/05/17 06:52:42;;;;;;;14.90;11.60;;;11.30;93.70;;;;;;4997314;28;20535;-70
2023/05/17 06:55:09;;;;;;;17.25;11.75;;;11.40;93.00;;;;;;4999089;28;20859;-71
2023/05/17 06:57:36;;;;;;;15.95;12.10;;;11.60;93.10;;;;;;4998558;28;20416;-71
2023/05/17 07:00:05;;;;;;;15.77;11.75;;;11.80;91.90;;;;;;4988236;28;20437;-71
2023/05/17 07:02:32;;;;;;;13.30;10.18;;;11.90;91.20;;;;;;5000673;28;20456;-70
2023/05/17 07:04:58;;;;;;;13.82;9.65;;;12.10;90.30;;;;;;4994446;28;20429;-70
2023/05/17 07:07:25;;;;;;;13.70;9.13;;;12.30;87.20;;;;;;4997214;28;20533;-71
2023/05/17 07:09:53;;;;;;;9.80;6.80;;;12.40;84.40;;;;;;4998236;28;20524;-70
2023/05/17 07:12:20;;;;;;;11.45;6.60;;;12.50;81.60;;;;;;4999957;28;20532;-69
2023/05/17 07:14:47;;;;;;;12.80;6.63;;;12.70;77.40;;;;;;5001790;28;20441;-69
2023/05/17 07:17:13;;;;;;;8.97;6.53;;;12.70;76.80;;;;;;5000320;28;20805;-70
2023/05/17 07:19:40;;;;;;;11.10;6.50;;;12.70;76.50;;;;;;4998929;28;20484;-70
2023/05/17 07:22:07;;;;;;;9.80;6.93;;;12.80;75.70;;;;;;4996184;28;20863;-70
2023/05/17 07:24:34;;;;;;;11.93;7.95;;;12.90;74.80;;;;;;4998052;28;20515;-70
2023/05/17 07:27:02;;;;;;;12.95;8.27;;;13.00;74.70;;;;;;5002436;28;20494;-70
2023/05/17 07:29:29;;;;;;;10.82;7.30;;;13.20;74.20;;;;;;5002422;28;20548;-71
2023/05/17 07:31:56;;;;;;;10.40;6.40;;;13.40;73.60;;;;;;5002903;28;20448;-72
2023/05/17 07:34:22;;;;;;;7.25;5.80;;;13.70;73.50;;;;;;5009102;28;20496;-70
2023/05/17 07:36:49;;;;;;;9.23;6.28;;;14.00;71.50;;;;;;5006175;28;20412;-70
2023/05/17 07:39:16;;;;;;;9.43;5.80;;;14.20;69.30;;;;;;5007454;28;20517;-69
2023/05/17 07:41:43;;;;;;;10.43;5.73;;;14.30;68.50;;;;;;5006434;28;20516;-69
2023/05/17 07:44:11;;;;;;;9.95;5.80;;;14.40;67.30;;;;;;5000540;28;20825;-67
2023/05/17 07:46:37;;;;;;;9.48;5.70;;;14.40;67.90;;;;;;4999221;28;20539;-68
2023/05/17 07:49:04;;;;;;;8.47;5.63;;;14.40;67.00;;;;;;5004253;28;20528;-69
2023/05/17 07:51:31;;;;;;;7.55;5.10;;;14.50;66.50;;;;;;4998526;28;20434;-69
2023/05/17 07:53:58;;;;;;;8.10;4.90;;;14.40;65.10;;;;;;5003896;28;20548;-69
2023/05/17 07:56:24;;;;;;;6.07;4.40;;;14.30;65.50;;;;;;4997717;28;20563;-71
2023/05/17 07:58:51;;;;;;;7.10;3.93;;;14.20;66.00;;;;;;4999249;28;20472;-69
2023/05/17 08:01:20;;;;;;;6.32;4.03;;;14.10;66.10;;;;;;5007852;28;20512;-69
2023/05/17 08:03:47;;;;;;;6.95;3.60;;;14.10;66.30;;;;;;5004698;28;20802;-69
2023/05/17 08:06:15;;;;;;;6.90;3.42;;;14.20;65.50;;;;;;5002503;28;20451;-70
2023/05/17 08:08:42;;;;;;;5.65;3.60;;;14.40;63.20;;;;;;4994623;28;20803;-70
2023/05/17 08:11:09;;;;;;;10.25;3.20;;;14.70;61.80;;;;;;5006247;28;20439;-72
2023/05/17 08:13:36;;;;;;;10.20;3.78;;;15.10;59.40;;;;;;5006742;28;20444;-69
2023/05/17 08:16:06;;;;;;;9.60;3.00;;;15.40;55.90;;;;;;5005884;28;20864;-70
2023/05/17 08:18:34;;;;;;;7.57;2.85;;;15.60;55.10;;;;;;5006495;28;20444;-70
2023/05/17 08:21:01;;;;;;;6.75;2.80;;;15.70;52.60;;;;;;5009208;28;20427;-70
2023/05/17 08:23:28;;;;;;;4.72;2.60;;;15.60;52.70;;;;;;5007332;28;20443;-70
2023/05/17 08:25:55;;;;;;;7.38;2.88;;;15.30;52.80;;;;;;5000380;28;20540;-70
2023/05/17 08:28:21;;;;;;;8.63;2.88;;;15.20;52.80;;;;;;4996810;28;20444;-70
2023/05/17 08:30:48;;;;;;;5.35;2.78;;;14.90;53.20;;;;;;5003350;28;20762;-71
2023/05/17 08:33:15;;;;;;;5.75;2.95;;;14.80;53.50;;;;;;5004502;28;20444;-69
2023/05/17 08:35:43;;;;;;;6.18;3.10;;;14.80;54.10;;;;;;5002767;28;20472;-72
2023/05/17 08:38:10;;;;;;;5.95;2.40;;;14.70;51.80;;;;;;4992764;28;20453;-72
2023/05/17 08:40:37;;;;;;;7.15;2.65;;;14.70;52.40;;;;;;5000757;28;20432;-71
2023/05/17 08:43:03;;;;;;;5.03;2.33;;;14.80;51.70;;;;;;5003116;28;20523;-70
2023/05/17 08:45:31;;;;;;;5.90;2.00;;;14.80;50.90;;;;;;4998385;28;20555;-70
2023/05/17 08:48:00;;;;;;;4.95;2.00;;;14.80;50.50;;;;;;5000787;28;20454;-70
2023/05/17 08:50:29;;;;;;;5.40;2.10;;;14.80;50.70;;;;;;4995169;28;20950;-71
2023/05/17 08:52:58;;;;;;;4.22;2.10;;;14.90;50.90;;;;;;4997298;28;20460;-70
2023/05/17 08:55:26;;;;;;;5.30;1.95;;;14.90;49.90;;;;;;5005758;28;20442;-71
2023/05/17 08:57:54;;;;;;;4.00;2.00;;;14.90;50.30;;;;;;5000635;28;20438;-70
2023/05/17 09:00:23;;;;;;;5.22;2.25;;;15.10;49.10;;;;;;5002945;28;20460;-70
2023/05/17 09:02:51;;;;;;;4.27;1.97;;;15.40;48.10;;;;;;4999801;28;20495;-70
2023/05/17 09:05:19;;;;;;;4.88;2.30;;;15.70;48.20;;;;;;5002219;28;20878;-70
2023/05/17 09:07:47;;;;;;;5.07;2.30;;;16.00;48.00;;;;;;4999838;28;20433;-70
2023/05/17 09:10:15;;;;;;;5.07;2.37;;;16.30;47.40;;;;;;5005332;28;20844;-70
2023/05/17 09:12:42;;;;;;;6.03;2.20;;;16.60;46.10;;;;;;4998236;28;20873;-71
2023/05/17 09:15:14;;;;;;;7.30;2.42;;;16.80;45.60;;;;;;5003822;28;20887;-70
2023/05/17 09:17:41;;;;;;;5.85;2.13;;;17.10;45.50;;;;;;5000364;28;20479;-72
2023/05/17 09:20:09;;;;;;;5.75;2.70;;;17.50;44.40;;;;;;4996995;28;20625;-70
2023/05/17 09:22:37;;;;;;;4.60;2.00;;;17.80;43.20;;;;;;4998744;28;20436;-70
2023/05/17 09:25:04;;;;;;;5.05;2.00;;;18.20;43.00;;;;;;5000520;28;20440;-70
2023/05/17 09:27:32;;;;;;;6.27;2.33;;;18.50;41.00;;;;;;5005530;28;20878;-72
2023/05/17 09:29:59;;;;;;;6.68;2.60;;;18.70;40.10;;;;;;4997965;28;20443;-69
2023/05/17 09:32:27;;;;;;;5.43;2.40;;;18.90;39.10;;;;;;4996489;28;21028;-71
2023/05/17 09:34:55;;;;;;;4.27;2.30;;;19.00;37.20;;;;;;5000255;28;20872;-70
2023/05/17 09:37:22;;;;;;;4.07;2.20;;;19.10;37.70;;;;;;5004067;28;20471;-70
2023/05/17 09:39:49;;;;;;;4.18;1.98;;;19.10;37.70;;;;;;5000674;28;20952;-69
2023/05/17 09:42:17;;;;;;;6.25;2.40;;;19.00;38.90;;;;;;4996307;28;20418;-69
2023/05/17 09:44:52;;;;;;;3.92;2.03;;;18.70;38.90;;;;;;4994183;28;20530;-70
2023/05/17 09:47:23;;;;;;;5.75;2.40;;;18.40;39.20;;;;;;4995675;28;20663;-71
2023/05/17 09:49:49;;;;;;;5.25;2.10;;;17.90;40.20;;;;;;5000524;28;20422;-70
2023/05/17 09:52:18;;;;;;;7.40;2.10;;;17.70;40.80;;;;;;4998056;28;20428;-69
2023/05/17 09:54:52;;;;;;;5.50;2.15;;;17.60;41.60;;;;;;5005623;28;20464;-71
2023/05/17 09:57:19;;;;;;;5.43;2.38;;;17.50;41.10;;;;;;5002891;28;20931;-71
2023/05/17 09:59:48;;;;;;;5.50;2.00;;;17.30;40.70;;;;;;5003191;28;20435;-71
2023/05/17 10:02:21;;;;;;;6.30;2.00;;;17.10;41.90;;;;;;5004811;28;20420;-70
2023/05/17 10:04:50;;;;;;;4.80;2.13;;;17.20;42.10;;;;;;4992261;28;20444;-70
2023/05/17 10:07:20;;;;;;;3.63;1.50;;;17.40;41.70;;;;;;5001890;28;20544;-71
2023/05/17 10:09:48;;;;;;;4.47;1.70;;;17.60;40.90;;;;;;5004794;28;20551;-70
2023/05/17 10:12:18;;;;;;;5.70;2.20;;;17.80;40.80;;;;;;4999306;28;20449;-71
2023/05/17 10:14:45;;;;;;;4.75;2.00;;;17.90;40.30;;;;;;4998125;28;20427;-70
2023/05/17 10:17:14;;;;;;;4.53;1.50;;;17.90;39.20;;;;;;5003425;28;20940;-70
2023/05/17 10:19:41;;;;;;;4.60;1.75;;;18.10;38.90;;;;;;5003544;28;20601;-71
2023/05/17 10:22:08;;;;;;;5.30;2.10;;;18.30;36.90;;;;;;5004464;28;20445;-70
2023/05/17 10:24:36;;;;;;;5.80;1.90;;;18.50;37.60;;;;;;4994363;28;20441;-70
2023/05/17 10:27:05;;;;;;;5.25;1.90;;;18.80;36.90;;;;;;4998201;28;20906;-70
2023/05/17 10:29:33;;;;;;;3.85;1.60;;;19.20;36.10;;;;;;4998912;28;20452;-70
2023/05/17 10:32:04;;;;;;;4.40;1.70;;;19.60;36.30;;;;;;4999746;28;20892;-70
2023/05/17 10:34:34;;;;;;;3.83;2.00;;;19.90;35.20;;;;;;5004437;28;20417;-70
2023/05/17 10:37:02;;;;;;;5.47;2.10;;;19.80;35.80;;;;;;5023445;23;20436;-76
2023/05/17 10:39:30;;;;;;;4.47;2.10;;;19.50;35.10;;;;;;5008890;28;20436;-75
2023/05/17 10:41:59;;;;;;;4.25;1.90;;;19.00;36.60;;;;;;5006215;28;20424;-76
2023/05/17 10:44:26;;;;;;;4.18;1.83;;;18.70;37.40;;;;;;5008560;28;20439;-76
2023/05/17 10:46:54;;;;;;;3.70;1.98;;;18.60;37.10;;;;;;5008184;28;20444;-75
2023/05/17 10:49:24;;;;;;;5.30;1.70;;;18.80;36.70;;;;;;5002817;28;20483;-76
2023/05/17 10:51:52;;;;;;;5.57;2.28;;;19.20;36.00;;;;;;5008728;28;20451;-77
2023/05/17 10:54:19;;;;;;;3.80;2.25;;;19.80;35.30;;;;;;5018411;28;20428;-75
2023/05/17 10:56:51;;;;;;;4.87;2.00;;;20.20;34.50;;;;;;5007939;28;20441;-76
2023/05/17 10:59:22;;;;;;;6.47;2.70;;;20.10;33.70;;;;;;5007618;28;20425;-75
2023/05/17 11:01:53;;;;;;;7.75;2.92;;;19.30;35.30;;;;;;5006418;28;20443;-76
2023/05/17 11:04:24;;;;;;;5.25;2.20;;;18.50;37.30;;;;;;5008156;28;20425;-77
2023/05/17 11:07:15;;;;;;;5.32;2.60;;;18.10;39.60;;;;;;5005453;28;20436;-76
2023/05/17 11:09:42;;;;;;;5.47;2.03;;;17.90;40.10;;;;;;5003458;28;20420;-76
2023/05/17 11:12:10;;;;;;;5.32;2.10;;;18.10;40.10;;;;;;5008003;28;20435;-75
2023/05/17 11:14:46;;;;;;;6.15;2.40;;;18.40;39.40;;;;;;5002406;28;20416;-77
2023/05/17 11:17:14;;;;;;;5.83;2.13;;;18.80;38.10;;;;;;5007514;28;20534;-75
2023/05/17 11:19:50;;;;;;;5.05;2.10;;;19.10;37.40;;;;;;5007868;28;20423;-75
2023/05/17 11:22:18;;;;;;;3.63;1.98;;;19.50;35.00;;;;;;5008470;28;20965;-75
2023/05/17 11:24:45;;;;;;;6.18;1.85;;;19.80;34.80;;;;;;5006868;28;20447;-75
2023/05/17 11:27:14;;;;;;;5.85;2.20;;;19.90;34.80;;;;;;5008613;28;20929;-77
2023/05/17 11:29:41;;;;;;;7.43;2.33;;;20.00;34.60;;;;;;5007583;28;20463;-77
2023/05/17 11:32:10;;;;;;;5.03;2.40;;;20.10;35.60;;;;;;5006938;28;20443;-75
2023/05/17 11:34:37;;;;;;;4.88;2.03;;;20.40;35.40;;;;;;5008840;28;20531;-75
2023/05/17 11:37:09;;;;;;;4.47;1.67;;;20.60;34.70;;;;;;5008208;28;20451;-75
2023/05/17 11:39:58;;;;;;;4.65;1.73;;;20.80;34.00;;;;;;5008295;28;20429;-76
2023/05/17 11:42:25;;;;;;;5.22;2.13;;;21.20;32.90;;;;;;4999274;28;20588;-76
2023/05/17 11:44:57;;;;;;;4.28;2.00;;;21.50;31.60;;;;;;5008251;28;20420;-76
2023/05/17 11:47:24;;;;;;;5.70;2.30;;;21.60;30.60;;;;;;5000334;28;20467;-76
2023/05/17 11:49:51;;;;;;;4.53;2.10;;;21.30;31.10;;;;;;5008182;28;20974;-76
2023/05/17 11:52:18;;;;;;;4.47;2.22;;;21.20;32.50;;;;;;5009426;28;20443;-77
2023/05/17 11:54:48;;;;;;;5.28;2.13;;;21.00;32.60;;;;;;5009658;28;20424;-77
2023/05/17 11:57:16;;;;;;;4.85;1.90;;;21.00;32.60;;;;;;5008350;28;20416;-76
2023/05/17 11:59:43;;;;;;;3.70;1.88;;;21.00;31.60;;;;;;5012424;28;20807;-77
2023/05/17 12:02:10;;;;;;;3.78;2.20;;;21.20;32.20;;;;;;5015037;28;20432;-76
2023/05/17 12:04:38;;;;;;;4.80;1.80;;;21.70;33.20;;;;;;5005527;28;20447;-76
2023/05/17 12:07:05;;;;;;;4.50;2.28;;;22.20;32.00;;;;;;5005708;28;20444;-77
2023/05/17 12:09:31;;;;;;;4.90;2.30;;;22.30;31.40;;;;;;5007530;28;20470;-68
2023/05/17 12:12:03;;;;;;;5.18;2.10;;;22.20;32.70;;;;;;5011366;28;20440;-69
2023/05/17 12:14:30;;;;;;;5.60;2.65;;;22.20;34.30;;;;;;5010799;28;20938;-68
2023/05/17 12:17:01;;;;;;;4.22;2.33;;;22.40;32.50;;;;;;5009055;28;20436;-71
2023/05/17 12:19:28;;;;;;;4.97;2.08;;;22.40;31.50;;;;;;5004120;28;20516;-70
2023/05/17 12:22:07;;;;;;;3.45;1.60;;;22.70;31.50;;;;;;5008474;28;20432;-70
2023/05/17 12:24:37;;;;;;;5.50;2.10;;;23.10;30.30;;;;;;5005582;28;20532;-70
2023/05/17 12:27:06;;;;;;;4.28;1.90;;;23.40;30.40;;;;;;5009676;28;20447;-71
2023/05/17 12:29:32;;;;;;;6.22;2.50;;;23.70;29.00;;;;;;5004805;28;20432;-69
2023/05/17 12:32:00;;;;;;;5.78;2.10;;;24.10;29.10;;;;;;5005440;28;20459;-69
2023/05/17 12:34:27;;;;;;;4.80;2.07;;;24.20;29.20;;;;;;5011107;28;20432;-69
2023/05/17 12:36:55;;;;;;;3.70;2.20;;;23.90;29.90;;;;;;5004424;28;20453;-70
2023/05/17 12:39:23;;;;;;;4.20;1.90;;;23.40;29.80;;;;;;5003056;28;20448;-69
2023/05/17 12:41:50;;;;;;;4.32;2.15;;;23.20;30.20;;;;;;5010350;28;20436;-72
2023/05/17 12:44:20;;;;;;;4.93;1.95;;;23.40;32.70;;;;;;5012799;28;20433;-70
2023/05/17 12:46:52;;;;;;;3.25;1.70;;;23.80;29.70;;;;;;5013608;28;20424;-69
2023/05/17 12:49:20;;;;;;;4.85;1.95;;;24.20;28.60;;;;;;5012342;28;20440;-71
2023/05/17 12:51:48;;;;;;;4.90;1.90;;;24.80;28.10;;;;;;5011882;28;20465;-71